Time;durP1;ratioP1;P1;durP2;ratioP2;P2;SDS_P1;SDS_P2;PMS_P1;PMS_P2;Temp;Humidity;BMP_temperature;BMP_pressure;BME280_temperature;BME280_humidity;BME280_pressure;Samples;Min_cycle;Max_cycle;Signal;HPM_P1;HPM_P2
2021/01/01 00:00:49;;;;;;;;;;;;;;;;;;2054040;28;7010;-62
2021/01/01 00:01:53;;;;;;;;;;;;;;;;;;2053929;28;7205;-62
2021/01/01 00:02:55;;;;;;;;;;;;;;;;;;2052704;28;8053;-62
2021/01/01 00:03:57;;;;;;;;;;;;;;;;;;2044468;28;7210;-62
2021/01/01 00:04:59;;;;;;;;;;;;;;;;;;2046071;28;7088;-62
2021/01/01 00:06:01;;;;;;;;;;;;;;;;;;2054351;28;7149;-60
2021/01/01 00:07:03;;;;;;;;;;;;;;;;;;2054091;28;7154;-61
2021/01/01 00:08:05;;;;;;;;;;;;;;;;;;2054641;28;7096;-62
2021/01/01 00:09:07;;;;;;;;;;;;;;;;;;2054356;28;7006;-60
2021/01/01 00:10:10;;;;;;;;;;;;;;;;;;2052498;28;7093;-62
2021/01/01 00:11:15;;;;;;;;;;;;;;;;;;2053638;28;7153;-61
2021/01/01 00:12:17;;;;;;;;;;;;;;;;;;2053117;28;7088;-62
2021/01/01 00:13:19;;;;;;;;;;;;;;;;;;2053192;28;7010;-61
2021/01/01 00:14:21;;;;;;;;;;;;;;;;;;2054072;28;8025;-61
2021/01/01 00:15:23;;;;;;;;;;;;;;;;;;2054096;28;8005;-62
2021/01/01 00:16:25;;;;;;;;;;;;;;;;;;2050947;28;7349;-60
2021/01/01 00:17:27;;;;;;;;;;;;;;;;;;2051847;28;7093;-62
2021/01/01 00:18:29;;;;;;;;;;;;;;;;;;2051618;28;8098;-62
2021/01/01 00:19:31;;;;;;;;;;;;;;;;;;2052128;28;7085;-60
2021/01/01 00:20:33;;;;;;;;;;;;;;;;;;2053149;28;7017;-61
2021/01/01 00:21:35;;;;;;;;;;;;;;;;;;2052943;28;7113;-61
2021/01/01 00:22:39;;;;;;;;;;;;;;;;;;2052257;28;7129;-61
2021/01/01 00:23:41;;;;;;;;;;;;;;;;;;2053034;28;7158;-62
2021/01/01 00:24:43;;;;;;;;;;;;;;;;;;2052578;28;8040;-62
2021/01/01 00:25:45;;;;;;;;;;;;;;;;;;2052624;28;7042;-60
2021/01/01 00:26:50;;;;;;;;;;;;;;;;;;2052992;28;7042;-60
2021/01/01 00:27:52;;;;;;;;;;;;;;;;;;2052741;28;7040;-62
2021/01/01 00:28:54;;;;;;;;;;;;;;;;;;2051994;28;8051;-63
2021/01/01 00:29:57;;;;;;;;;;;;;;;;;;2044595;28;7097;-60
2021/01/01 00:30:58;;;;;;;;;;;;;;;;;;2044761;28;7121;-62
2021/01/01 00:32:00;;;;;;;;;;;;;;;;;;2052300;28;7009;-60
2021/01/01 00:33:02;;;;;;;;;;;;;;;;;;2051910;28;7089;-61
2021/01/01 00:34:04;;;;;;;;;;;;;;;;;;2053195;28;7129;-63
2021/01/01 00:35:06;;;;;;;;;;;;;;;;;;2053857;28;7014;-63
2021/01/01 00:36:09;;;;;;;;;;;;;;;;;;2053653;28;7309;-60
2021/01/01 00:37:18;;;;;;;;;;;;;;;;;;2054154;28;7050;-61
2021/01/01 00:38:20;;;;;;;;;;;;;;;;;;2053706;28;7093;-61
2021/01/01 00:39:22;;;;;;;;;;;;;;;;;;2054036;28;8108;-60
2021/01/01 00:40:23;;;;;;;;;;;;;;;;;;2053819;28;7046;-63
2021/01/01 00:41:29;;;;;;;;;;;;;;;;;;2054052;28;7005;-61
2021/01/01 00:42:34;;;;;;;;;;;;;;;;;;2054084;28;7014;-61
2021/01/01 00:43:36;;;;;;;;;;;;;;;;;;2053876;28;7106;-62
2021/01/01 00:44:37;;;;;;;;;;;;;;;;;;2054039;28;7018;-63
2021/01/01 00:45:39;;;;;;;;;;;;;;;;;;2053807;28;7111;-62
2021/01/01 00:46:41;;;;;;;;;;;;;;;;;;2053868;28;7050;-63
2021/01/01 00:47:49;;;;;;;;;;;;;;;;;;2054316;28;7620;-63
2021/01/01 00:48:51;;;;;;;;;;;;;;;;;;2054101;28;8080;-60
2021/01/01 00:49:53;;;;;;;;;;;;;;;;;;2054265;28;7317;-60
2021/01/01 00:50:55;;;;;;;;;;;;;;;;;;2053951;28;7419;-62
2021/01/01 00:52:14;;;;;;;;;;;;;;;;;;2052571;28;7035;-61
2021/01/01 00:53:16;;;;;;;;;;;;;;;;;;2054068;28;7014;-62
2021/01/01 00:54:18;;;;;;;;;;;;;;;;;;2053866;28;7332;-60
2021/01/01 00:55:21;;;;;;;;;;;;;;;;;;2053839;28;7116;-62
2021/01/01 00:56:24;;;;;;;;;;;;;;;;;;2054526;28;7093;-60
2021/01/01 00:57:26;;;;;;;;;;;;;;;;;;2054482;28;7134;-61
2021/01/01 00:58:28;;;;;;;;;;;;;;;;;;2053735;28;7160;-62
2021/01/01 00:59:30;;;;;;;;;;;;;;;;;;2054579;28;7013;-61
2021/01/01 01:00:32;;;;;;;;;;;;;;;;;;2052780;28;8018;-62
2021/01/01 01:01:37;;;;;;;;;;;;;;;;;;2053821;28;7313;-62
2021/01/01 01:02:39;;;;;;;;;;;;;;;;;;2053141;28;7329;-62
2021/01/01 01:03:44;;;;;;;;;;;;;;;;;;2053003;28;8036;-61
2021/01/01 01:04:46;;;;;;;;;;;;;;;;;;2052683;28;7050;-62
2021/01/01 01:05:47;;;;;;;;;;;;;;;;;;2054431;28;7121;-61
2021/01/01 01:06:49;;;;;;;;;;;;;;;;;;2051584;28;7018;-63
2021/01/01 01:07:51;;;;;;;;;;;;;;;;;;2049415;28;7014;-61
2021/01/01 01:08:54;;;;;;;;;;;;;;;;;;2051411;28;7014;-61
2021/01/01 01:09:56;;;;;;;;;;;;;;;;;;2050585;28;7105;-59
2021/01/01 01:10:58;;;;;;;;;;;;;;;;;;2052229;28;7050;-61
2021/01/01 01:11:59;;;;;;;;;;;;;;;;;;2049542;28;7018;-61
2021/01/01 01:13:01;;;;;;;;;;;;;;;;;;2053863;28;7355;-62
2021/01/01 01:14:03;;;;;;;;;;;;;;;;;;2052896;28;7018;-60
2021/01/01 01:15:06;;;;;;;;;;;;;;;;;;2051472;28;7134;-62
2021/01/01 01:16:08;;;;;;;;;;;;;;;;;;2052918;28;7014;-61
2021/01/01 01:17:10;;;;;;;;;;;;;;;;;;2052968;28;7022;-61
2021/01/01 01:18:12;;;;;;;;;;;;;;;;;;2053999;28;7353;-63
2021/01/01 01:19:14;;;;;;;;;;;;;;;;;;2053216;28;7125;-61
2021/01/01 01:20:16;;;;;;;;;;;;;;;;;;2052738;28;7006;-61
2021/01/01 01:21:18;;;;;;;;;;;;;;;;;;2055924;28;8547;-62
2021/01/01 01:22:20;;;;;;;;;;;;;;;;;;2053337;28;7140;-62
2021/01/01 01:23:22;;;;;;;;;;;;;;;;;;2054621;28;7041;-61
2021/01/01 01:24:24;;;;;;;;;;;;;;;;;;2054461;28;7013;-61
2021/01/01 01:25:26;;;;;;;;;;;;;;;;;;2055476;28;7018;-62
2021/01/01 01:26:28;;;;;;;;;;;;;;;;;;2052087;28;8124;-61
2021/01/01 01:27:30;;;;;;;;;;;;;;;;;;2056431;28;7174;-60
2021/01/01 01:28:32;;;;;;;;;;;;;;;;;;2054964;28;7013;-63
2021/01/01 01:29:34;;;;;;;;;;;;;;;;;;2054327;28;7014;-60
2021/01/01 01:30:37;;;;;;;;;;;;;;;;;;2055182;28;7037;-62
2021/01/01 01:31:38;;;;;;;;;;;;;;;;;;2053427;28;7086;-60
2021/01/01 01:32:40;;;;;;;;;;;;;;;;;;2054396;28;7006;-60
2021/01/01 01:33:42;;;;;;;;;;;;;;;;;;2054641;28;7010;-63
2021/01/01 01:34:44;;;;;;;;;;;;;;;;;;2054406;28;7005;-60
2021/01/01 01:35:46;;;;;;;;;;;;;;;;;;2053363;28;7010;-60
2021/01/01 01:36:49;;;;;;;;;;;;;;;;;;2054413;28;7113;-61
2021/01/01 01:37:51;;;;;;;;;;;;;;;;;;2053626;28;7058;-61
2021/01/01 01:38:53;;;;;;;;;;;;;;;;;;2055287;28;7051;-63
2021/01/01 01:39:55;;;;;;;;;;;;;;;;;;2055945;28;7316;-62
2021/01/01 01:40:57;;;;;;;;;;;;;;;;;;2055331;28;7039;-59
2021/01/01 01:41:59;;;;;;;;;;;;;;;;;;2055579;28;7110;-62
2021/01/01 01:43:00;;;;;;;;;;;;;;;;;;2054319;28;7022;-60
2021/01/01 01:44:02;;;;;;;;;;;;;;;;;;2055326;28;8919;-61
2021/01/01 01:45:06;;;;;;;;;;;;;;;;;;2056091;28;7092;-60
2021/01/01 01:46:08;;;;;;;;;;;;;;;;;;2056033;28;7374;-62
2021/01/01 01:47:16;;;;;;;;;;;;;;;;;;2052521;28;7013;-62
2021/01/01 01:48:30;;;;;;;;;;;;;;;;;;2052549;28;7117;-62
2021/01/01 01:49:32;;;;;;;;;;;;;;;;;;2055623;28;7014;-62
2021/01/01 01:50:35;;;;;;;;;;;;;;;;;;2054465;28;7089;-63
2021/01/01 01:51:39;;;;;;;;;;;;;;;;;;2054410;28;7329;-61
2021/01/01 01:52:42;;;;;;;;;;;;;;;;;;2055528;28;7009;-61
2021/01/01 01:53:45;;;;;;;;;;;;;;;;;;2054610;28;7006;-61
2021/01/01 01:54:47;;;;;;;;;;;;;;;;;;2054976;28;7093;-63
2021/01/01 01:55:51;;;;;;;;;;;;;;;;;;2055325;28;7088;-62
2021/01/01 01:56:53;;;;;;;;;;;;;;;;;;2055468;28;7006;-61
2021/01/01 01:57:57;;;;;;;;;;;;;;;;;;2055058;28;7005;-61
2021/01/01 01:58:59;;;;;;;;;;;;;;;;;;2055437;28;8044;-61
2021/01/01 02:00:06;;;;;;;;;;;;;;;;;;2055704;28;7470;-60
2021/01/01 02:01:11;;;;;;;;;;;;;;;;;;2055334;28;7010;-63
2021/01/01 02:02:13;;;;;;;;;;;;;;;;;;2055455;28;7010;-62
2021/01/01 02:03:15;;;;;;;;;;;;;;;;;;2054746;28;7014;-60
2021/01/01 02:04:17;;;;;;;;;;;;;;;;;;2053454;28;7096;-61
2021/01/01 02:05:19;;;;;;;;;;;;;;;;;;2055072;28;7085;-62
2021/01/01 02:06:21;;;;;;;;;;;;;;;;;;2055094;28;7058;-61
2021/01/01 02:07:24;;;;;;;;;;;;;;;;;;2055186;28;7130;-61
2021/01/01 02:08:26;;;;;;;;;;;;;;;;;;2053785;28;7089;-61
2021/01/01 02:09:28;;;;;;;;;;;;;;;;;;2055022;28;7010;-60
2021/01/01 02:10:30;;;;;;;;;;;;;;;;;;2055321;28;8063;-60
2021/01/01 02:11:33;;;;;;;;;;;;;;;;;;2054224;28;7317;-61
2021/01/01 02:12:35;;;;;;;;;;;;;;;;;;2054858;28;7022;-62
2021/01/01 02:13:40;;;;;;;;;;;;;;;;;;2054752;28;7029;-60
2021/01/01 02:14:42;;;;;;;;;;;;;;;;;;2054972;28;7301;-61
2021/01/01 02:15:44;;;;;;;;;;;;;;;;;;2054077;28;7014;-62
2021/01/01 02:16:47;;;;;;;;;;;;;;;;;;2055565;28;7010;-61
2021/01/01 02:17:49;;;;;;;;;;;;;;;;;;2055060;28;7010;-59
2021/01/01 02:18:53;;;;;;;;;;;;;;;;;;2055136;28;7006;-62
2021/01/01 02:20:08;;;;;;;;;;;;;;;;;;2054414;28;7010;-62
2021/01/01 02:21:14;;;;;;;;;;;;;;;;;;2055215;28;7089;-61
2021/01/01 02:22:16;;;;;;;;;;;;;;;;;;2054962;28;7017;-62
2021/01/01 02:23:18;;;;;;;;;;;;;;;;;;2054621;28;8059;-61
2021/01/01 02:24:21;;;;;;;;;;;;;;;;;;2055266;28;7097;-63
2021/01/01 02:25:23;;;;;;;;;;;;;;;;;;2055797;28;8033;-61
2021/01/01 02:26:25;;;;;;;;;;;;;;;;;;2056193;28;7109;-60
2021/01/01 02:27:27;;;;;;;;;;;;;;;;;;2056519;28;7014;-62
2021/01/01 02:28:47;;;;;;;;;;;;;;;;;;2055815;28;7025;-59
2021/01/01 02:29:49;;;;;;;;;;;;;;;;;;2055965;28;8084;-62
2021/01/01 02:30:51;;;;;;;;;;;;;;;;;;2056727;28;7013;-60
2021/01/01 02:31:53;;;;;;;;;;;;;;;;;;2055532;28;7050;-59
2021/01/01 02:32:55;;;;;;;;;;;;;;;;;;2056801;28;7025;-63
2021/01/01 02:33:58;;;;;;;;;;;;;;;;;;2055646;28;7093;-61
2021/01/01 02:35:03;;;;;;;;;;;;;;;;;;2055855;28;7042;-61
2021/01/01 02:36:05;;;;;;;;;;;;;;;;;;2055826;28;7085;-61
2021/01/01 02:37:07;;;;;;;;;;;;;;;;;;2055968;28;7085;-60
2021/01/01 02:38:09;;;;;;;;;;;;;;;;;;2055809;28;7010;-62
2021/01/01 02:39:11;;;;;;;;;;;;;;;;;;2054021;28;8105;-59
2021/01/01 02:40:13;;;;;;;;;;;;;;;;;;2054680;28;7009;-60
2021/01/01 02:41:15;;;;;;;;;;;;;;;;;;2055435;28;7010;-61
2021/01/01 02:42:17;;;;;;;;;;;;;;;;;;2055123;28;8036;-61
2021/01/01 02:43:20;;;;;;;;;;;;;;;;;;2055099;28;7998;-62
2021/01/01 02:44:22;;;;;;;;;;;;;;;;;;2055179;28;7018;-61
2021/01/01 02:45:24;;;;;;;;;;;;;;;;;;2055108;28;7093;-60
2021/01/01 02:46:25;;;;;;;;;;;;;;;;;;2055204;28;7110;-60
2021/01/01 02:47:27;;;;;;;;;;;;;;;;;;2055104;28;7010;-60
2021/01/01 02:48:29;;;;;;;;;;;;;;;;;;2055427;28;7274;-62
2021/01/01 02:49:31;;;;;;;;;;;;;;;;;;2055128;28;7138;-61
2021/01/01 02:50:33;;;;;;;;;;;;;;;;;;2053303;28;7393;-61
2021/01/01 02:51:36;;;;;;;;;;;;;;;;;;2055084;28;7325;-60
2021/01/01 02:52:38;;;;;;;;;;;;;;;;;;2055041;28;7093;-61
2021/01/01 02:53:40;;;;;;;;;;;;;;;;;;2055748;28;7369;-60
2021/01/01 02:54:42;;;;;;;;;;;;;;;;;;2055671;28;7025;-60
2021/01/01 02:55:44;;;;;;;;;;;;;;;;;;2054979;28;7013;-60
2021/01/01 02:56:46;;;;;;;;;;;;;;;;;;2055416;28;7006;-60
2021/01/01 02:57:48;;;;;;;;;;;;;;;;;;2055233;28;7042;-60
2021/01/01 02:58:50;;;;;;;;;;;;;;;;;;2054148;28;7101;-60
2021/01/01 02:59:52;;;;;;;;;;;;;;;;;;2055023;28;7289;-60
2021/01/01 03:00:54;;;;;;;;;;;;;;;;;;2055270;28;7096;-60
2021/01/01 03:01:56;;;;;;;;;;;;;;;;;;2056193;28;7084;-61
2021/01/01 03:02:58;;;;;;;;;;;;;;;;;;2054990;28;7026;-61
2021/01/01 03:04:00;;;;;;;;;;;;;;;;;;2054861;28;7088;-60
2021/01/01 03:05:02;;;;;;;;;;;;;;;;;;2054713;28;7088;-59
2021/01/01 03:06:04;;;;;;;;;;;;;;;;;;2054723;28;8033;-62
2021/01/01 03:07:06;;;;;;;;;;;;;;;;;;2054983;28;7108;-60
2021/01/01 03:08:08;;;;;;;;;;;;;;;;;;2055611;28;7106;-62
2021/01/01 03:09:10;;;;;;;;;;;;;;;;;;2054527;28;7014;-62
2021/01/01 03:10:12;;;;;;;;;;;;;;;;;;2053583;28;7139;-60
2021/01/01 03:11:14;;;;;;;;;;;;;;;;;;2053252;28;7724;-62
2021/01/01 03:12:16;;;;;;;;;;;;;;;;;;2054715;28;7046;-60
2021/01/01 03:13:18;;;;;;;;;;;;;;;;;;2054762;28;7109;-60
2021/01/01 03:14:20;;;;;;;;;;;;;;;;;;2055252;28;7042;-62
2021/01/01 03:15:22;;;;;;;;;;;;;;;;;;2054363;28;7109;-61
2021/01/01 03:16:24;;;;;;;;;;;;;;;;;;2055096;28;8103;-60
2021/01/01 03:17:26;;;;;;;;;;;;;;;;;;2054066;28;7014;-62
2021/01/01 03:18:30;;;;;;;;;;;;;;;;;;2054663;28;7073;-62
2021/01/01 03:19:32;;;;;;;;;;;;;;;;;;2055337;28;7140;-61
2021/01/01 03:20:34;;;;;;;;;;;;;;;;;;2054645;28;7014;-60
2021/01/01 03:21:35;;;;;;;;;;;;;;;;;;2055306;28;7046;-61
2021/01/01 03:22:37;;;;;;;;;;;;;;;;;;2055495;28;7077;-59
2021/01/01 03:23:39;;;;;;;;;;;;;;;;;;2054836;28;7071;-60
2021/01/01 03:24:41;;;;;;;;;;;;;;;;;;2055081;28;7400;-61
2021/01/01 03:25:43;;;;;;;;;;;;;;;;;;2054842;28;7298;-60
2021/01/01 03:26:45;;;;;;;;;;;;;;;;;;2055269;28;8054;-63
2021/01/01 03:27:47;;;;;;;;;;;;;;;;;;2055323;28;7058;-63
2021/01/01 03:28:49;;;;;;;;;;;;;;;;;;2053860;28;7101;-60
2021/01/01 03:29:51;;;;;;;;;;;;;;;;;;2055077;28;7292;-61
2021/01/01 03:30:53;;;;;;;;;;;;;;;;;;2054279;28;7092;-61
2021/01/01 03:31:55;;;;;;;;;;;;;;;;;;2054352;28;7038;-61
2021/01/01 03:32:58;;;;;;;;;;;;;;;;;;2054695;28;7093;-62
2021/01/01 03:34:00;;;;;;;;;;;;;;;;;;2054924;28;7010;-63
2021/01/01 03:35:02;;;;;;;;;;;;;;;;;;2054842;28;7021;-59
2021/01/01 03:36:07;;;;;;;;;;;;;;;;;;2055108;28;7243;-60
2021/01/01 03:37:09;;;;;;;;;;;;;;;;;;2055218;28;8040;-61
2021/01/01 03:38:11;;;;;;;;;;;;;;;;;;2054944;28;7249;-59
2021/01/01 03:39:13;;;;;;;;;;;;;;;;;;2055104;28;7026;-63
2021/01/01 03:40:15;;;;;;;;;;;;;;;;;;2054220;28;7054;-61
2021/01/01 03:41:17;;;;;;;;;;;;;;;;;;2054547;28;7010;-60
2021/01/01 03:42:18;;;;;;;;;;;;;;;;;;2054861;28;7045;-62
2021/01/01 03:43:20;;;;;;;;;;;;;;;;;;2054701;28;7147;-61
2021/01/01 03:44:22;;;;;;;;;;;;;;;;;;2054788;28;8116;-62
2021/01/01 03:45:24;;;;;;;;;;;;;;;;;;2054703;28;7006;-63
2021/01/01 03:46:26;;;;;;;;;;;;;;;;;;2054547;28;7010;-62
2021/01/01 03:47:28;;;;;;;;;;;;;;;;;;2054851;28;8060;-59
2021/01/01 03:48:30;;;;;;;;;;;;;;;;;;2054066;28;7042;-61
2021/01/01 03:49:32;;;;;;;;;;;;;;;;;;2053851;28;7133;-60
2021/01/01 03:50:34;;;;;;;;;;;;;;;;;;2053977;28;7014;-63
2021/01/01 03:51:36;;;;;;;;;;;;;;;;;;2054815;28;7045;-60
2021/01/01 03:52:38;;;;;;;;;;;;;;;;;;2054536;28;7010;-61
2021/01/01 03:53:40;;;;;;;;;;;;;;;;;;2054829;28;7093;-60
2021/01/01 03:54:41;;;;;;;;;;;;;;;;;;2054763;28;7033;-63
2021/01/01 03:55:44;;;;;;;;;;;;;;;;;;2054836;28;7046;-60
2021/01/01 03:56:46;;;;;;;;;;;;;;;;;;2053786;28;7010;-60
2021/01/01 03:57:47;;;;;;;;;;;;;;;;;;2053407;28;7090;-60
2021/01/01 03:58:49;;;;;;;;;;;;;;;;;;2053138;28;7014;-61
2021/01/01 03:59:52;;;;;;;;;;;;;;;;;;2053185;28;7206;-61
2021/01/01 04:00:54;;;;;;;;;;;;;;;;;;2053116;28;7089;-61
2021/01/01 04:01:56;;;;;;;;;;;;;;;;;;2053954;28;8103;-61
2021/01/01 04:02:57;;;;;;;;;;;;;;;;;;2053761;28;7081;-61
2021/01/01 04:03:59;;;;;;;;;;;;;;;;;;2054351;28;7133;-62
2021/01/01 04:05:02;;;;;;;;;;;;;;;;;;2054801;28;7009;-61
2021/01/01 04:06:04;;;;;;;;;;;;;;;;;;2054040;28;7199;-60
2021/01/01 04:07:06;;;;;;;;;;;;;;;;;;2054753;28;7151;-60
2021/01/01 04:08:09;;;;;;;;;;;;;;;;;;2054127;28;7192;-60
2021/01/01 04:09:11;;;;;;;;;;;;;;;;;;2053609;28;7376;-61
2021/01/01 04:10:12;;;;;;;;;;;;;;;;;;2054761;28;7093;-62
2021/01/01 04:11:14;;;;;;;;;;;;;;;;;;2053845;28;8052;-60
2021/01/01 04:12:17;;;;;;;;;;;;;;;;;;2054656;28;7317;-60
2021/01/01 04:13:19;;;;;;;;;;;;;;;;;;2054319;28;7980;-62
2021/01/01 04:14:21;;;;;;;;;;;;;;;;;;2054811;28;7096;-62
2021/01/01 04:15:22;;;;;;;;;;;;;;;;;;2054797;28;7018;-60
2021/01/01 04:16:24;;;;;;;;;;;;;;;;;;2055047;28;7044;-61
2021/01/01 04:17:26;;;;;;;;;;;;;;;;;;2053651;28;7029;-60
2021/01/01 04:18:28;;;;;;;;;;;;;;;;;;2055151;28;7010;-63
2021/01/01 04:19:30;;;;;;;;;;;;;;;;;;2054423;28;7046;-62
2021/01/01 04:20:33;;;;;;;;;;;;;;;;;;2054395;28;7009;-59
2021/01/01 04:21:34;;;;;;;;;;;;;;;;;;2054416;28;7301;-62
2021/01/01 04:22:36;;;;;;;;;;;;;;;;;;2054678;28;7010;-61
2021/01/01 04:23:38;;;;;;;;;;;;;;;;;;2054809;28;7010;-63
2021/01/01 04:24:40;;;;;;;;;;;;;;;;;;2054905;28;7084;-61
2021/01/01 04:25:42;;;;;;;;;;;;;;;;;;2053566;28;7117;-61
2021/01/01 04:26:44;;;;;;;;;;;;;;;;;;2054586;28;7010;-61
2021/01/01 04:27:46;;;;;;;;;;;;;;;;;;2054603;28;7037;-61
2021/01/01 04:28:48;;;;;;;;;;;;;;;;;;2054546;28;7010;-61
2021/01/01 04:29:50;;;;;;;;;;;;;;;;;;2054091;28;7046;-62
2021/01/01 04:30:52;;;;;;;;;;;;;;;;;;2054873;28;7021;-62
2021/01/01 04:31:54;;;;;;;;;;;;;;;;;;2055208;28;7009;-60
2021/01/01 04:32:56;;;;;;;;;;;;;;;;;;2054057;28;8052;-63
2021/01/01 04:33:58;;;;;;;;;;;;;;;;;;2053223;28;7010;-62
2021/01/01 04:35:00;;;;;;;;;;;;;;;;;;2054626;28;7164;-61
2021/01/01 04:36:03;;;;;;;;;;;;;;;;;;2054303;28;7107;-62
2021/01/01 04:37:05;;;;;;;;;;;;;;;;;;2054328;28;7010;-60
2021/01/01 04:38:07;;;;;;;;;;;;;;;;;;2054452;28;7006;-61
2021/01/01 04:39:09;;;;;;;;;;;;;;;;;;2054504;28;7096;-61
2021/01/01 04:40:12;;;;;;;;;;;;;;;;;;2054321;28;7113;-61
2021/01/01 04:41:14;;;;;;;;;;;;;;;;;;2054666;28;7330;-60
2021/01/01 04:42:18;;;;;;;;;;;;;;;;;;2054630;28;7097;-62
2021/01/01 04:43:20;;;;;;;;;;;;;;;;;;2055030;28;7005;-60
2021/01/01 04:44:25;;;;;;;;;;;;;;;;;;2054479;28;8028;-62
2021/01/01 04:45:28;;;;;;;;;;;;;;;;;;2054550;28;7009;-61
2021/01/01 04:46:30;;;;;;;;;;;;;;;;;;2053655;28;7013;-63
2021/01/01 04:47:32;;;;;;;;;;;;;;;;;;2054660;28;7014;-61
2021/01/01 04:48:35;;;;;;;;;;;;;;;;;;2052878;28;7018;-63
2021/01/01 04:49:38;;;;;;;;;;;;;;;;;;2053005;28;7221;-61
2021/01/01 04:50:40;;;;;;;;;;;;;;;;;;2054494;28;7109;-62
2021/01/01 04:51:43;;;;;;;;;;;;;;;;;;2054015;28;8043;-61
2021/01/01 04:52:48;;;;;;;;;;;;;;;;;;2045804;29;7180;-62
2021/01/01 04:53:54;;;;;;;;;;;;;;;;;;2045798;29;7088;-63
2021/01/01 04:54:57;;;;;;;;;;;;;;;;;;2053738;28;7050;-60
2021/01/01 04:56:00;;;;;;;;;;;;;;;;;;2054596;28;7226;-61
2021/01/01 04:57:02;;;;;;;;;;;;;;;;;;2054822;28;7125;-60
2021/01/01 04:58:05;;;;;;;;;;;;;;;;;;2054610;28;7006;-61
2021/01/01 04:59:07;;;;;;;;;;;;;;;;;;2054561;28;7137;-60
2021/01/01 05:00:09;;;;;;;;;;;;;;;;;;2054397;28;8223;-60
2021/01/01 05:01:11;;;;;;;;;;;;;;;;;;2054289;28;7097;-59
2021/01/01 05:02:13;;;;;;;;;;;;;;;;;;2053513;28;7010;-62
2021/01/01 05:03:15;;;;;;;;;;;;;;;;;;2054245;28;8038;-59
2021/01/01 05:04:17;;;;;;;;;;;;;;;;;;2054109;28;7010;-60
2021/01/01 05:05:25;;;;;;;;;;;;;;;;;;2054797;28;7013;-62
2021/01/01 05:06:30;;;;;;;;;;;;;;;;;;2054609;28;7026;-62
2021/01/01 05:07:32;;;;;;;;;;;;;;;;;;2053176;28;7132;-60
2021/01/01 05:08:34;;;;;;;;;;;;;;;;;;2054260;28;7147;-62
2021/01/01 05:09:37;;;;;;;;;;;;;;;;;;2054429;28;7130;-61
2021/01/01 05:10:39;;;;;;;;;;;;;;;;;;2054149;28;7092;-62
2021/01/01 05:11:41;;;;;;;;;;;;;;;;;;2054145;28;7092;-63
2021/01/01 05:12:43;;;;;;;;;;;;;;;;;;2054097;28;7006;-60
2021/01/01 05:13:53;;;;;;;;;;;;;;;;;;2054865;28;7182;-62
2021/01/01 05:14:55;;;;;;;;;;;;;;;;;;2055609;28;7050;-62
2021/01/01 05:15:57;;;;;;;;;;;;;;;;;;2054516;28;8030;-60
2021/01/01 05:16:59;;;;;;;;;;;;;;;;;;2055611;28;7009;-63
2021/01/01 05:18:01;;;;;;;;;;;;;;;;;;2055820;28;7112;-60
2021/01/01 05:19:13;;;;;;;;;;;;;;;;;;2055484;28;7149;-62
2021/01/01 05:20:15;;;;;;;;;;;;;;;;;;2055538;28;8043;-61
2021/01/01 05:21:27;;;;;;;;;;;;;;;;;;2055784;28;7135;-60
2021/01/01 05:22:32;;;;;;;;;;;;;;;;;;2056123;28;7110;-62
2021/01/01 05:23:40;;;;;;;;;;;;;;;;;;2055517;28;7010;-61
2021/01/01 05:24:42;;;;;;;;;;;;;;;;;;2055810;28;7097;-62
2021/01/01 05:25:45;;;;;;;;;;;;;;;;;;2055807;28;8072;-61
2021/01/01 05:26:48;;;;;;;;;;;;;;;;;;2055800;28;7058;-59
2021/01/01 05:27:57;;;;;;;;;;;;;;;;;;2054904;28;8079;-62
2021/01/01 05:29:04;;;;;;;;;;;;;;;;;;2055243;28;7411;-60
2021/01/01 05:30:08;;;;;;;;;;;;;;;;;;2055844;28;7115;-60
2021/01/01 05:31:13;;;;;;;;;;;;;;;;;;2056177;28;7089;-61
2021/01/01 05:32:19;;;;;;;;;;;;;;;;;;2055808;28;7134;-62
2021/01/01 05:33:22;;;;;;;;;;;;;;;;;;2056411;28;7006;-62
2021/01/01 05:34:25;;;;;;;;;;;;;;;;;;2055147;28;7168;-61
2021/01/01 05:35:31;;;;;;;;;;;;;;;;;;2054743;28;7113;-61
2021/01/01 05:36:35;;;;;;;;;;;;;;;;;;2056050;28;7129;-61
2021/01/01 05:37:38;;;;;;;;;;;;;;;;;;2056265;28;7109;-62
2021/01/01 05:38:39;;;;;;;;;;;;;;;;;;2056122;28;7096;-60
2021/01/01 05:39:41;;;;;;;;;;;;;;;;;;2055833;28;7443;-61
2021/01/01 05:40:46;;;;;;;;;;;;;;;;;;2055771;28;7010;-60
2021/01/01 05:41:52;;;;;;;;;;;;;;;;;;2054690;28;7007;-62
2021/01/01 05:42:54;;;;;;;;;;;;;;;;;;2055964;28;7034;-60
2021/01/01 05:44:10;;;;;;;;;;;;;;;;;;2056139;28;9153;-61
2021/01/01 05:45:16;;;;;;;;;;;;;;;;;;2056102;28;7062;-59
2021/01/01 05:46:17;;;;;;;;;;;;;;;;;;2055706;28;7036;-63
2021/01/01 05:47:19;;;;;;;;;;;;;;;;;;2056143;28;7089;-61
2021/01/01 05:48:21;;;;;;;;;;;;;;;;;;2055654;28;7046;-61
2021/01/01 05:49:25;;;;;;;;;;;;;;;;;;2055808;28;7093;-63
2021/01/01 05:50:27;;;;;;;;;;;;;;;;;;2056152;28;7006;-62
2021/01/01 05:51:29;;;;;;;;;;;;;;;;;;2054477;28;6998;-62
2021/01/01 05:52:31;;;;;;;;;;;;;;;;;;2055611;28;7037;-61
2021/01/01 05:53:33;;;;;;;;;;;;;;;;;;2055751;28;7145;-62
2021/01/01 05:54:36;;;;;;;;;;;;;;;;;;2055880;28;7014;-63
2021/01/01 05:55:38;;;;;;;;;;;;;;;;;;2056128;28;7116;-61
2021/01/01 05:56:40;;;;;;;;;;;;;;;;;;2056092;28;7136;-63
2021/01/01 05:57:42;;;;;;;;;;;;;;;;;;2053709;28;7312;-63
2021/01/01 05:58:44;;;;;;;;;;;;;;;;;;2055834;28;7026;-63
2021/01/01 05:59:47;;;;;;;;;;;;;;;;;;2055916;28;7010;-61
2021/01/01 06:00:53;;;;;;;;;;;;;;;;;;2054054;28;7434;-61
2021/01/01 06:02:02;;;;;;;;;;;;;;;;;;2054805;28;7010;-60
2021/01/01 06:03:04;;;;;;;;;;;;;;;;;;2055237;28;8155;-63
2021/01/01 06:04:06;;;;;;;;;;;;;;;;;;2054948;28;7297;-61
2021/01/01 06:05:09;;;;;;;;;;;;;;;;;;2055298;28;7324;-61
2021/01/01 06:06:16;;;;;;;;;;;;;;;;;;2055269;28;7104;-62
2021/01/01 06:07:20;;;;;;;;;;;;;;;;;;2054673;28;7042;-61
2021/01/01 06:08:24;;;;;;;;;;;;;;;;;;2055058;28;7010;-60
2021/01/01 06:09:27;;;;;;;;;;;;;;;;;;2055264;28;7092;-61
2021/01/01 06:10:30;;;;;;;;;;;;;;;;;;2055481;28;7109;-61
2021/01/01 06:11:34;;;;;;;;;;;;;;;;;;2054774;28;7093;-60
2021/01/01 06:12:37;;;;;;;;;;;;;;;;;;2055736;28;7014;-61
2021/01/01 06:13:48;;;;;;;;;;;;;;;;;;2055764;28;7009;-61
2021/01/01 06:14:58;;;;;;;;;;;;;;;;;;2055558;28;7010;-62
2021/01/01 06:16:02;;;;;;;;;;;;;;;;;;2055456;28;7117;-60
2021/01/01 06:17:10;;;;;;;;;;;;;;;;;;2055952;28;7118;-60
2021/01/01 06:18:14;;;;;;;;;;;;;;;;;;2055515;28;7042;-62
2021/01/01 06:19:28;;;;;;;;;;;;;;;;;;2055434;28;7308;-62
2021/01/01 06:20:31;;;;;;;;;;;;;;;;;;2055651;28;7341;-61
2021/01/01 06:21:33;;;;;;;;;;;;;;;;;;2055334;28;7010;-62
2021/01/01 06:22:55;;;;;;;;;;;;;;;;;;2055442;28;8069;-60
2021/01/01 06:23:57;;;;;;;;;;;;;;;;;;2054605;28;7006;-62
2021/01/01 06:25:00;;;;;;;;;;;;;;;;;;2055354;28;7031;-63
2021/01/01 06:26:04;;;;;;;;;;;;;;;;;;2053929;28;7189;-63
2021/01/01 06:27:06;;;;;;;;;;;;;;;;;;2055504;28;7010;-60
2021/01/01 06:28:14;;;;;;;;;;;;;;;;;;2054930;28;9049;-61
2021/01/01 06:29:18;;;;;;;;;;;;;;;;;;2055654;28;7006;-60
2021/01/01 06:30:23;;;;;;;;;;;;;;;;;;2055906;28;7089;-60
2021/01/01 06:31:25;;;;;;;;;;;;;;;;;;2055776;28;7085;-62
2021/01/01 06:32:31;;;;;;;;;;;;;;;;;;2055787;28;7010;-61
2021/01/01 06:33:33;;;;;;;;;;;;;;;;;;2055660;28;7014;-60
2021/01/01 06:34:35;;;;;;;;;;;;;;;;;;2055375;28;7093;-60
2021/01/01 06:35:43;;;;;;;;;;;;;;;;;;2056107;28;7088;-64
2021/01/01 06:36:45;;;;;;;;;;;;;;;;;;2055277;28;7029;-62
2021/01/01 06:37:49;;;;;;;;;;;;;;;;;;2055285;28;7085;-60
2021/01/01 06:38:51;;;;;;;;;;;;;;;;;;2055209;28;7006;-62
2021/01/01 06:39:53;;;;;;;;;;;;;;;;;;2055548;28;7010;-61
2021/01/01 06:40:55;;;;;;;;;;;;;;;;;;2055842;28;7009;-61
2021/01/01 06:41:57;;;;;;;;;;;;;;;;;;2055667;28;7022;-61
2021/01/01 06:43:03;;;;;;;;;;;;;;;;;;2054498;28;7010;-60
2021/01/01 06:44:05;;;;;;;;;;;;;;;;;;2055505;28;7042;-60
2021/01/01 06:45:27;;;;;;;;;;;;;;;;;;2054081;28;7999;-61
2021/01/01 06:46:36;;;;;;;;;;;;;;;;;;2054826;28;7341;-61
2021/01/01 06:47:43;;;;;;;;;;;;;;;;;;2055198;28;7010;-59
2021/01/01 06:48:44;;;;;;;;;;;;;;;;;;2055230;28;7030;-63
2021/01/01 06:49:46;;;;;;;;;;;;;;;;;;2055378;28;7049;-61
2021/01/01 06:50:49;;;;;;;;;;;;;;;;;;2055033;28;7010;-60
2021/01/01 06:52:04;;;;;;;;;;;;;;;;;;2055545;28;7050;-60
2021/01/01 06:53:11;;;;;;;;;;;;;;;;;;2054923;28;7009;-60
2021/01/01 06:54:13;;;;;;;;;;;;;;;;;;2055126;28;7353;-61
2021/01/01 06:55:15;;;;;;;;;;;;;;;;;;2055137;28;7046;-63
2021/01/01 06:56:20;;;;;;;;;;;;;;;;;;2055320;28;7010;-59
2021/01/01 06:57:23;;;;;;;;;;;;;;;;;;2054670;28;7133;-60
2021/01/01 06:58:26;;;;;;;;;;;;;;;;;;2055068;28;7014;-60
2021/01/01 06:59:33;;;;;;;;;;;;;;;;;;2055237;28;7114;-62
2021/01/01 07:00:50;;;;;;;;;;;;;;;;;;2054095;28;7009;-62
2021/01/01 07:01:51;;;;;;;;;;;;;;;;;;2054783;28;7009;-61
2021/01/01 07:02:54;;;;;;;;;;;;;;;;;;2054287;28;7085;-60
2021/01/01 07:03:56;;;;;;;;;;;;;;;;;;2054645;28;7009;-59
2021/01/01 07:04:58;;;;;;;;;;;;;;;;;;2054651;28;7010;-60
2021/01/01 07:06:02;;;;;;;;;;;;;;;;;;2054963;28;7093;-61
2021/01/01 07:07:06;;;;;;;;;;;;;;;;;;2055206;28;7014;-61
2021/01/01 07:08:08;;;;;;;;;;;;;;;;;;2054380;28;7121;-60
2021/01/01 07:09:11;;;;;;;;;;;;;;;;;;2054933;28;7014;-61
2021/01/01 07:10:33;;;;;;;;;;;;;;;;;;2054834;28;7042;-62
2021/01/01 07:11:36;;;;;;;;;;;;;;;;;;2055508;28;7017;-61
2021/01/01 07:12:38;;;;;;;;;;;;;;;;;;2055994;28;7066;-62
2021/01/01 07:13:45;;;;;;;;;;;;;;;;;;2055187;28;7102;-59
2021/01/01 07:14:47;;;;;;;;;;;;;;;;;;2055586;28;8052;-60
2021/01/01 07:15:49;;;;;;;;;;;;;;;;;;2055555;28;7010;-59
2021/01/01 07:16:54;;;;;;;;;;;;;;;;;;2054016;28;7031;-61
2021/01/01 07:17:56;;;;;;;;;;;;;;;;;;2055022;28;7118;-61
2021/01/01 07:18:58;;;;;;;;;;;;;;;;;;2055484;28;7118;-59